createdAt,value
2022-08-16T00:03:26.898Z,20.61
2022-08-16T00:07:23.896Z,20.43
2022-08-16T00:11:21.973Z,20.34
2022-08-16T00:15:51.600Z,20.30
2022-08-16T00:19:45.677Z,20.39
2022-08-16T00:23:46.076Z,20.03
2022-08-16T00:27:43.859Z,19.95
2022-08-16T00:32:00.683Z,20.01
2022-08-16T00:36:03.060Z,19.83
2022-08-16T00:40:00.626Z,19.60
2022-08-16T00:44:10.766Z,19.65
2022-08-16T00:48:30.539Z,19.67
2022-08-16T00:52:30.450Z,19.36
2022-08-16T00:56:56.766Z,19.28
2022-08-16T01:00:54.327Z,19.02
2022-08-16T01:05:11.078Z,18.87
2022-08-16T01:09:09.039Z,18.71
2022-08-16T01:13:15.287Z,18.87
2022-08-16T01:17:15.481Z,18.78
2022-08-16T01:21:39.752Z,18.93
2022-08-16T01:25:44.723Z,18.75
2022-08-16T01:30:21.944Z,18.71
2022-08-16T01:34:26.603Z,18.84
2022-08-16T01:38:37.510Z,18.64
2022-08-16T01:42:39.540Z,18.56
2022-08-16T01:46:45.126Z,18.28
2022-08-16T01:51:09.115Z,18.37
2022-08-16T01:55:07.286Z,18.27
2022-08-16T01:59:15.770Z,17.96
2022-08-16T02:03:14.680Z,17.99
2022-08-16T02:07:13.360Z,17.80
2022-08-16T02:11:11.456Z,17.90
2022-08-16T02:15:09.138Z,17.96
2022-08-16T02:19:16.192Z,18.00
2022-08-16T02:23:14.334Z,18.01
2022-08-16T02:27:15.052Z,17.90
2022-08-16T02:31:16.112Z,17.96
2022-08-16T02:35:13.991Z,18.06
2022-08-16T02:39:15.997Z,17.90
2022-08-16T02:43:13.921Z,18.05
2022-08-16T02:47:12.497Z,17.84
2022-08-16T02:51:23.337Z,17.70
2022-08-16T02:55:40.826Z,17.72
2022-08-16T02:59:42.428Z,17.53
2022-08-16T03:04:39.640Z,17.48
2022-08-16T03:07:57.834Z,17.67
2022-08-16T03:11:56.080Z,17.57
2022-08-16T03:15:54.214Z,17.45
2022-08-16T03:20:00.010Z,17.43
2022-08-16T03:24:02.879Z,17.44
2022-08-16T03:28:00.766Z,17.38
2022-08-16T03:32:01.403Z,17.26
2022-08-16T03:36:30.416Z,17.32
2022-08-16T03:40:23.273Z,17.14
2022-08-16T03:44:40.774Z,17.00
2022-08-16T03:48:45.566Z,17.13
2022-08-16T03:52:47.684Z,17.09
2022-08-16T03:56:57.665Z,17.10
2022-08-16T04:00:59.370Z,17.09
2022-08-16T04:04:57.397Z,17.01
2022-08-16T04:08:55.090Z,16.87
2022-08-16T04:12:55.427Z,16.97
2022-08-16T04:16:59.439Z,16.98
2022-08-16T04:21:07.158Z,16.82
2022-08-16T04:25:05.913Z,16.59
2022-08-16T04:29:16.781Z,16.63
2022-08-16T04:33:27.457Z,16.44
2022-08-16T04:37:27.180Z,16.41
2022-08-16T04:41:37.521Z,16.57
2022-08-16T04:45:38.632Z,16.75
2022-08-16T04:49:46.180Z,16.71
2022-08-16T04:53:45.393Z,16.78
2022-08-16T04:57:46.035Z,16.91
2022-08-16T05:01:58.799Z,16.72
2022-08-16T05:06:02.276Z,17.07
2022-08-16T05:10:19.397Z,16.98
2022-08-16T05:14:42.027Z,17.16
2022-08-16T05:18:35.556Z,17.27
2022-08-16T05:22:33.020Z,17.26
2022-08-16T05:26:33.485Z,17.41
2022-08-16T05:30:34.730Z,17.32
2022-08-16T05:34:38.691Z,17.38
2022-08-16T05:38:39.663Z,17.63
2022-08-16T05:42:45.956Z,17.81
2022-08-16T05:46:45.742Z,18.04
2022-08-16T05:50:47.599Z,18.09
2022-08-16T05:55:01.046Z,18.22
2022-08-16T05:59:01.366Z,18.22
2022-08-16T06:03:00.220Z,18.61
2022-08-16T06:07:26.695Z,18.81
2022-08-16T06:11:47.126Z,19.02
2022-08-16T06:15:44.684Z,19.38
2022-08-16T06:19:45.723Z,19.45
2022-08-16T06:23:45.269Z,19.48
2022-08-16T06:27:57.174Z,19.55
2022-08-16T06:31:57.674Z,19.75
2022-08-16T06:35:59.369Z,20.06
2022-08-16T06:39:58.885Z,20.13
2022-08-16T06:44:06.935Z,20.35
2022-08-16T06:48:19.045Z,20.58
2022-08-16T06:52:59.854Z,20.60
2022-08-16T06:56:54.196Z,20.92
2022-08-16T07:00:53.226Z,20.82
2022-08-16T07:04:53.301Z,20.94
2022-08-16T07:08:51.401Z,20.97
2022-08-16T07:13:03.539Z,21.16
2022-08-16T07:17:08.031Z,21.55
2022-08-16T07:21:10.197Z,21.68
2022-08-16T07:25:13.742Z,21.60
2022-08-16T07:29:11.115Z,21.86
2022-08-16T07:33:10.736Z,22.09
2022-08-16T07:37:14.158Z,22.09
2022-08-16T07:41:24.966Z,22.31
2022-08-16T07:45:28.697Z,22.41
2022-08-16T07:49:32.350Z,22.59
2022-08-16T07:53:43.805Z,22.98
2022-08-16T07:57:55.869Z,23.09
2022-08-16T08:01:59.297Z,23.55
2022-08-16T08:05:57.636Z,24.35
2022-08-16T08:09:57.064Z,25.47
2022-08-16T08:13:55.127Z,26.69
2022-08-16T08:17:54.637Z,27.86
2022-08-16T08:22:01.790Z,29.32
2022-08-16T08:26:17.380Z,30.60
2022-08-16T08:30:51.144Z,31.43
2022-08-16T08:34:34.429Z,30.83
2022-08-16T08:38:43.660Z,29.88
2022-08-16T08:42:43.746Z,29.91
2022-08-16T08:47:00.151Z,30.17
2022-08-16T08:50:59.341Z,29.70
2022-08-16T08:54:57.062Z,30.84
2022-08-16T08:58:59.169Z,30.81
2022-08-16T09:03:04.541Z,29.65
2022-08-16T09:07:04.763Z,28.53
2022-08-16T09:11:04.092Z,28.68
2022-08-16T09:15:09.221Z,29.03
2022-08-16T09:19:11.741Z,28.98
2022-08-16T09:23:08.985Z,29.19
2022-08-16T09:27:14.428Z,30.91
2022-08-16T09:31:14.835Z,31.02
2022-08-16T09:35:11.978Z,29.94
2022-08-16T09:39:16.375Z,31.37
2022-08-16T09:43:58.245Z,31.79
2022-08-16T09:47:56.506Z,32.79
2022-08-16T09:51:55.608Z,33.91
2022-08-16T09:55:56.954Z,31.42
2022-08-16T09:59:56.117Z,31.26
2022-08-16T10:04:01.564Z,31.22
2022-08-16T10:07:59.979Z,30.58
2022-08-16T10:12:35.468Z,29.74
2022-08-16T10:16:40.077Z,30.96
2022-08-16T10:20:42.924Z,30.93
2022-08-16T10:24:56.097Z,30.20
2022-08-16T10:28:57.122Z,28.85
2022-08-16T10:32:54.217Z,28.27
2022-08-16T10:36:54.333Z,28.41
2022-08-16T10:40:51.580Z,28.60
2022-08-16T10:44:53.584Z,28.50
2022-08-16T10:48:52.515Z,28.69
2022-08-16T10:52:50.312Z,30.53
2022-08-16T10:56:56.914Z,31.35
2022-08-16T11:00:57.587Z,30.45
2022-08-16T11:05:10.727Z,30.31
2022-08-16T11:09:25.346Z,30.84
2022-08-16T11:17:43.176Z,31.36
2022-08-16T11:26:16.438Z,31.04
2022-08-16T11:30:19.824Z,32.65
2022-08-16T11:34:19.886Z,34.65
2022-08-16T11:38:46.701Z,36.10
2022-08-16T11:42:39.499Z,37.37
2022-08-16T11:46:44.833Z,36.92
2022-08-16T11:50:44.996Z,35.68
2022-08-16T11:54:42.118Z,34.83
2022-08-16T11:58:42.137Z,33.80
2022-08-16T12:02:39.979Z,32.79
2022-08-16T12:06:43.159Z,31.32
2022-08-16T12:10:43.140Z,31.60
2022-08-16T12:14:40.766Z,34.20
2022-08-16T12:18:40.635Z,35.89
2022-08-16T12:22:38.972Z,34.83
2022-08-16T12:26:36.035Z,34.69
2022-08-16T12:30:41.015Z,37.10
2022-08-16T12:34:38.240Z,36.29
2022-08-16T12:38:48.929Z,34.17
2022-08-16T12:42:53.020Z,32.76
2022-08-16T12:47:10.572Z,31.26
2022-08-16T12:51:22.338Z,30.88
2022-08-16T12:55:23.953Z,30.73
2022-08-16T12:59:31.273Z,30.14
2022-08-16T13:03:29.015Z,29.95
2022-08-16T13:07:37.479Z,30.52
2022-08-16T13:11:48.395Z,31.49
2022-08-16T13:16:03.597Z,31.37
2022-08-16T13:20:09.458Z,30.89
2022-08-16T13:24:08.154Z,31.24
2022-08-16T13:28:05.825Z,31.60
2022-08-16T13:32:05.549Z,31.35
2022-08-16T13:36:07.370Z,31.26
2022-08-16T13:40:20.002Z,31.43
2022-08-16T13:44:19.044Z,31.10
2022-08-16T13:48:21.925Z,30.75
2022-08-16T13:52:24.979Z,32.01
2022-08-16T13:56:36.958Z,32.43
2022-08-16T14:00:36.479Z,31.97
2022-08-16T14:04:37.961Z,31.47
2022-08-16T14:08:35.003Z,31.13
2022-08-16T14:12:34.560Z,30.49
2022-08-16T14:16:34.020Z,30.21
2022-08-16T14:20:31.934Z,30.59
2022-08-16T14:24:30.370Z,30.61
2022-08-16T14:28:27.770Z,30.58
2022-08-16T14:32:34.018Z,30.19
2022-08-16T14:36:33.123Z,30.32
2022-08-16T14:40:30.897Z,30.17
2022-08-16T14:44:28.244Z,30.48
2022-08-16T14:48:26.209Z,30.71
2022-08-16T14:52:51.927Z,31.79
2022-08-16T14:56:43.085Z,31.84
2022-08-16T15:00:43.690Z,31.93
2022-08-16T15:04:48.268Z,31.63
2022-08-16T15:08:46.624Z,31.24
2022-08-16T15:12:45.624Z,32.47
2022-08-16T15:16:46.121Z,34.14
2022-08-16T15:20:44.314Z,34.46
2022-08-16T15:24:43.739Z,34.06
2022-08-16T15:28:41.516Z,33.71
2022-08-16T15:32:39.983Z,32.80
2022-08-16T15:36:37.013Z,32.32
2022-08-16T15:40:35.803Z,31.91
2022-08-16T15:44:45.120Z,32.81
2022-08-16T15:48:51.546Z,34.18
2022-08-16T15:52:48.665Z,34.58
2022-08-16T15:56:46.530Z,34.83
2022-08-16T16:00:46.446Z,35.99
2022-08-16T16:04:43.801Z,36.16
2022-08-16T16:08:41.803Z,35.92
2022-08-16T16:12:53.365Z,36.56
2022-08-16T16:16:52.953Z,36.29
2022-08-16T16:20:57.100Z,35.35
2022-08-16T16:24:54.488Z,34.46
2022-08-16T16:29:08.510Z,35.32
2022-08-16T16:33:08.863Z,35.54
2022-08-16T16:37:09.499Z,35.18
2022-08-16T16:41:09.805Z,35.58
2022-08-16T16:45:10.521Z,34.86
2022-08-16T16:49:09.276Z,34.23
2022-08-16T16:53:17.097Z,33.25
2022-08-16T16:57:35.284Z,32.63
2022-08-16T17:01:59.531Z,31.87
2022-08-16T17:06:09.373Z,31.09
2022-08-16T17:10:09.307Z,30.73
2022-08-16T17:14:13.889Z,30.28
2022-08-16T17:19:17.055Z,30.05
2022-08-16T17:22:43.707Z,30.47
2022-08-16T17:26:40.791Z,30.89
2022-08-16T17:30:46.063Z,31.16
2022-08-16T17:34:46.403Z,31.21
2022-08-16T17:38:44.755Z,31.05
2022-08-16T17:42:47.839Z,30.91
2022-08-16T17:46:52.171Z,30.64
2022-08-16T17:50:50.129Z,30.33
2022-08-16T17:54:51.901Z,29.83
2022-08-16T17:58:49.101Z,29.58
2022-08-16T18:02:48.046Z,29.15
2022-08-16T18:06:47.040Z,28.67
2022-08-16T18:10:44.493Z,28.22
2022-08-16T18:14:50.942Z,27.78
2022-08-16T18:18:50.388Z,27.07
2022-08-16T18:22:47.698Z,26.84
2022-08-16T18:26:45.564Z,26.42
2022-08-16T18:30:46.762Z,26.00
2022-08-16T18:34:46.459Z,25.63
2022-08-16T18:38:43.468Z,25.21
2022-08-16T18:42:52.090Z,24.95
2022-08-16T18:46:50.887Z,24.63
2022-08-16T18:50:59.369Z,24.38
2022-08-16T18:55:13.934Z,24.43
2022-08-16T18:59:11.810Z,24.28
2022-08-16T19:03:18.271Z,23.42
2022-08-16T19:07:15.271Z,23.90
2022-08-16T19:11:20.050Z,23.74
2022-08-16T19:15:24.283Z,23.63
2022-08-16T19:19:22.870Z,23.47
2022-08-16T19:23:26.399Z,23.30
2022-08-16T19:27:23.685Z,23.18
2022-08-16T19:31:26.254Z,22.98
2022-08-16T19:35:23.287Z,22.73
2022-08-16T19:39:20.317Z,22.56
2022-08-16T19:43:17.494Z,22.60
2022-08-16T19:47:15.603Z,22.53
2022-08-16T19:51:16.517Z,22.26
2022-08-16T19:55:19.341Z,22.31
2022-08-16T19:59:21.993Z,22.15
2022-08-16T20:03:22.972Z,22.08
2022-08-16T20:07:21.530Z,21.82
2022-08-16T20:11:18.922Z,21.89
2022-08-16T20:15:17.128Z,21.86
2022-08-16T20:19:14.456Z,21.58
2022-08-16T20:23:24.875Z,21.57
2022-08-16T20:27:22.864Z,21.50
2022-08-16T20:31:20.464Z,21.27
2022-08-16T20:35:22.393Z,21.33
2022-08-16T20:39:19.954Z,21.22
2022-08-16T20:43:16.966Z,21.19
2022-08-16T20:47:14.392Z,21.17
2022-08-16T20:51:12.179Z,21.13
2022-08-16T20:55:09.711Z,21.07
2022-08-16T20:59:06.698Z,20.93
2022-08-16T21:03:12.404Z,20.65
2022-08-16T21:07:09.889Z,20.79
2022-08-16T21:11:07.410Z,20.55
2022-08-16T21:15:08.841Z,20.66
2022-08-16T21:19:06.655Z,20.55
2022-08-16T21:23:07.859Z,20.45
2022-08-16T21:27:04.899Z,20.27
2022-08-16T21:31:03.738Z,20.18
2022-08-16T21:35:10.443Z,20.12
2022-08-16T21:39:07.515Z,20.17
2022-08-16T21:43:15.163Z,19.99
2022-08-16T21:47:12.279Z,19.90
2022-08-16T21:51:15.122Z,19.80
2022-08-16T21:55:12.151Z,19.77
2022-08-16T21:59:11.077Z,19.71
2022-08-16T22:03:10.737Z,19.76
2022-08-16T22:07:07.944Z,19.62
2022-08-16T22:11:08.914Z,19.63
2022-08-16T22:15:07.382Z,19.38
2022-08-16T22:19:06.835Z,19.38
2022-08-16T22:23:16.656Z,19.32
2022-08-16T22:27:13.812Z,19.21
2022-08-16T22:31:11.601Z,19.15
2022-08-16T22:35:14.346Z,19.20
2022-08-16T22:39:14.728Z,19.18
2022-08-16T22:43:13.754Z,18.97
2022-08-16T22:47:10.829Z,19.05
2022-08-16T22:51:07.891Z,18.75
2022-08-16T22:55:05.361Z,18.75
2022-08-16T22:59:02.399Z,18.80
2022-08-16T23:03:08.329Z,18.83
2022-08-16T23:07:06.715Z,18.58
2022-08-16T23:11:04.600Z,18.47
2022-08-16T23:15:04.673Z,18.48
2022-08-16T23:19:07.480Z,18.47
2022-08-16T23:23:20.461Z,18.36
2022-08-16T23:27:19.063Z,18.22
2022-08-16T23:31:16.384Z,18.09
2022-08-16T23:35:16.743Z,18.18
2022-08-16T23:39:14.020Z,17.99
2022-08-16T23:43:19.273Z,18.03
2022-08-16T23:47:16.324Z,17.98
2022-08-16T23:51:15.105Z,18.00
2022-08-16T23:55:12.231Z,18.05
2022-08-16T23:59:09.312Z,17.82
